createdAt,value
2022-12-19T00:00:14.749Z,636.54
2022-12-19T00:01:26.856Z,625.28
2022-12-19T00:02:32.733Z,618.31
2022-12-19T00:03:39.463Z,611.35
2022-12-19T00:04:42.853Z,604.78
2022-12-19T00:05:48.876Z,609.24
2022-12-19T00:06:52.165Z,603.17
2022-12-19T00:07:59.034Z,601.16
2022-12-19T00:09:06.853Z,603.62
2022-12-19T00:10:13.534Z,612.25
2022-12-19T00:11:18.952Z,625.77
2022-12-19T00:12:24.804Z,618.82
2022-12-19T00:13:35.288Z,596.49
2022-12-19T00:14:50.735Z,603.06
2022-12-19T00:15:54.545Z,616.24
2022-12-19T00:17:00.431Z,616.14
2022-12-19T00:18:05.677Z,625.66
2022-12-19T00:19:15.784Z,637.81
2022-12-19T00:20:19.471Z,619.57
2022-12-19T00:21:28.414Z,609.50
2022-12-19T00:22:31.757Z,636.41
2022-12-19T00:23:38.839Z,634.39
2022-12-19T00:24:42.915Z,634.66
2022-12-19T00:25:48.847Z,627.29
2022-12-19T00:26:52.131Z,641.38
2022-12-19T00:27:58.639Z,634.95
2022-12-19T00:29:11.164Z,641.82
2022-12-19T00:30:24.115Z,651.17
2022-12-19T00:31:31.630Z,672.75
2022-12-19T00:32:37.764Z,657.96
2022-12-19T00:33:43.401Z,642.55
2022-12-19T00:34:51.000Z,657.27
2022-12-19T00:35:59.098Z,654.29
2022-12-19T00:37:05.011Z,667.88
2022-12-19T00:38:08.417Z,665.27
2022-12-19T00:39:14.698Z,668.60
2022-12-19T00:40:18.427Z,679.66
2022-12-19T00:41:28.398Z,675.69
2022-12-19T00:42:32.338Z,669.39
2022-12-19T00:43:38.532Z,678.18
2022-12-19T00:44:42.002Z,659.06
2022-12-19T00:45:50.666Z,674.07
2022-12-19T00:46:54.907Z,691.16
2022-12-19T00:48:00.801Z,663.32
2022-12-19T00:49:06.535Z,645.17
2022-12-19T00:50:13.801Z,649.48
2022-12-19T00:51:21.335Z,664.96
2022-12-19T00:52:28.092Z,657.01
2022-12-19T00:53:34.827Z,660.92
2022-12-19T00:54:42.096Z,658.22
2022-12-19T00:55:45.337Z,640.97
2022-12-19T00:56:51.351Z,632.66
2022-12-19T00:57:55.550Z,632.99
2022-12-19T00:59:05.884Z,628.39
2022-12-19T01:00:12.099Z,629.10
2022-12-19T01:01:24.652Z,626.44
2022-12-19T01:02:30.761Z,621.26
2022-12-19T01:03:35.239Z,626.20
2022-12-19T01:04:41.962Z,628.41
2022-12-19T01:05:51.027Z,625.32
2022-12-19T01:07:01.758Z,634.30
2022-12-19T01:08:09.208Z,641.94
2022-12-19T01:09:16.514Z,630.55
2022-12-19T01:10:19.966Z,621.18
2022-12-19T01:11:46.694Z,618.02
2022-12-19T01:12:49.973Z,602.69
2022-12-19T01:13:54.684Z,610.58
2022-12-19T01:15:04.899Z,622.06
2022-12-19T01:16:15.168Z,628.88
2022-12-19T01:17:21.157Z,605.63
2022-12-19T01:18:27.096Z,602.51
2022-12-19T01:19:30.566Z,598.63
2022-12-19T01:20:37.287Z,611.38
2022-12-19T01:21:41.033Z,598.83
2022-12-19T01:22:47.877Z,598.00
2022-12-19T01:23:51.187Z,607.82
2022-12-19T01:24:57.091Z,600.68
2022-12-19T01:26:01.357Z,602.39
2022-12-19T01:27:07.494Z,606.41
2022-12-19T01:28:18.261Z,607.96
2022-12-19T01:29:22.275Z,612.50
2022-12-19T01:30:29.256Z,613.98
2022-12-19T01:31:35.108Z,600.19
2022-12-19T01:32:44.706Z,617.15
2022-12-19T01:33:48.120Z,604.08
2022-12-19T01:34:56.404Z,609.11
2022-12-19T01:36:02.033Z,594.97
2022-12-19T01:37:08.877Z,607.93
2022-12-19T01:38:15.615Z,599.97
2022-12-19T01:39:21.525Z,604.68
2022-12-19T01:40:30.247Z,585.62
2022-12-19T01:41:33.869Z,587.88
2022-12-19T01:42:41.210Z,593.98
2022-12-19T01:44:02.075Z,599.99
2022-12-19T01:45:34.077Z,597.00
2022-12-19T01:46:47.649Z,608.76
2022-12-19T01:48:07.739Z,592.12
2022-12-19T01:49:25.278Z,597.85
2022-12-19T01:50:38.081Z,595.62
2022-12-19T01:51:54.375Z,602.80
2022-12-19T01:53:01.421Z,597.93
2022-12-19T01:54:15.535Z,618.67
2022-12-19T01:55:22.082Z,607.13
2022-12-19T01:56:37.429Z,614.03
2022-12-19T01:57:40.876Z,611.82
2022-12-19T01:58:49.000Z,624.27
2022-12-19T02:00:00.198Z,611.68
2022-12-19T02:01:06.666Z,635.75
2022-12-19T02:02:19.452Z,629.28
2022-12-19T02:03:32.709Z,610.25
2022-12-19T02:04:37.485Z,629.44
2022-12-19T02:05:44.617Z,621.22
2022-12-19T02:06:56.484Z,637.11
2022-12-19T02:08:05.985Z,646.39
2022-12-19T02:09:10.197Z,635.45
2022-12-19T02:10:17.025Z,636.22
2022-12-19T02:11:20.504Z,645.90
2022-12-19T02:12:33.246Z,644.48
2022-12-19T02:13:36.835Z,659.15
2022-12-19T02:14:44.623Z,644.76
2022-12-19T02:16:05.927Z,676.00
2022-12-19T02:17:27.951Z,655.88
2022-12-19T02:18:52.181Z,659.91
2022-12-19T02:20:48.445Z,667.75
2022-12-19T02:22:12.712Z,671.01
2022-12-19T02:24:10.984Z,680.85
2022-12-19T02:26:03.655Z,665.78
2022-12-19T02:28:01.083Z,641.10
2022-12-19T02:29:43.997Z,651.55
2022-12-19T02:31:17.499Z,675.29
2022-12-19T02:32:36.302Z,643.72
2022-12-19T02:33:49.557Z,641.99
2022-12-19T02:35:11.279Z,653.13
2022-12-19T02:36:28.580Z,641.52
2022-12-19T02:37:44.831Z,635.36
2022-12-19T02:39:02.400Z,641.17
2022-12-19T02:40:18.550Z,644.09
2022-12-19T02:41:43.519Z,634.42
2022-12-19T02:43:00.968Z,630.92
2022-12-19T02:44:08.865Z,621.90
2022-12-19T02:45:28.337Z,622.29
2022-12-19T02:46:37.869Z,612.39
2022-12-19T02:47:43.396Z,616.15
2022-12-19T02:48:51.635Z,597.00
2022-12-19T02:49:55.084Z,606.02
2022-12-19T02:51:01.421Z,615.40
2022-12-19T02:52:13.303Z,602.30
2022-12-19T02:53:23.805Z,611.52
2022-12-19T02:54:33.031Z,602.05
2022-12-19T02:55:51.746Z,592.77
2022-12-19T02:57:09.174Z,598.81
2022-12-19T02:58:46.684Z,617.88
2022-12-19T03:00:06.768Z,601.28
2022-12-19T03:01:36.635Z,606.31
2022-12-19T03:03:01.183Z,592.36
2022-12-19T03:04:24.343Z,601.39
2022-12-19T03:05:45.662Z,592.45
2022-12-19T03:07:02.101Z,621.15
2022-12-19T03:08:23.964Z,604.34
2022-12-19T03:09:43.952Z,598.53
2022-12-19T03:11:00.758Z,585.33
2022-12-19T03:12:18.362Z,577.02
2022-12-19T03:13:30.584Z,579.71
2022-12-19T03:14:40.293Z,580.96
2022-12-19T03:15:45.448Z,586.65
2022-12-19T03:16:54.396Z,589.02
2022-12-19T03:18:02.883Z,596.06
2022-12-19T03:19:16.535Z,593.86
2022-12-19T03:20:37.353Z,584.15
2022-12-19T03:21:47.783Z,588.12
2022-12-19T03:22:51.866Z,568.67
2022-12-19T03:24:01.408Z,594.42
2022-12-19T03:25:05.608Z,591.32
2022-12-19T03:26:20.757Z,603.69
2022-12-19T03:27:34.285Z,599.08
2022-12-19T03:28:50.981Z,597.02
2022-12-19T03:30:06.849Z,589.35
2022-12-19T03:31:15.852Z,615.50
2022-12-19T03:32:25.601Z,602.46
2022-12-19T03:33:35.074Z,597.99
2022-12-19T03:34:50.910Z,594.85
2022-12-19T03:36:04.610Z,616.97
2022-12-19T03:37:20.351Z,601.71
2022-12-19T03:38:24.476Z,604.97
2022-12-19T03:39:35.202Z,600.64
2022-12-19T03:40:46.465Z,597.93
2022-12-19T03:42:07.867Z,615.17
2022-12-19T03:43:21.665Z,617.77
2022-12-19T03:44:34.849Z,612.20
2022-12-19T03:45:56.599Z,602.22
2022-12-19T03:47:15.120Z,600.20
2022-12-19T03:48:30.970Z,591.99
2022-12-19T03:49:38.253Z,605.37
2022-12-19T03:51:00.375Z,618.24
2022-12-19T03:52:24.855Z,616.07
2022-12-19T03:53:50.275Z,613.37
2022-12-19T03:55:06.326Z,612.27
2022-12-19T03:56:25.883Z,619.70
2022-12-19T03:57:40.203Z,622.18
2022-12-19T03:58:56.247Z,621.47
2022-12-19T04:00:08.166Z,627.10
2022-12-19T04:01:22.650Z,625.54
2022-12-19T04:02:29.365Z,622.24
2022-12-19T04:03:37.020Z,623.85
2022-12-19T04:04:53.677Z,602.11
2022-12-19T04:06:02.127Z,605.58
2022-12-19T04:07:12.019Z,618.98
2022-12-19T04:08:17.922Z,604.99
2022-12-19T04:09:27.431Z,604.11
2022-12-19T04:10:36.153Z,609.24
2022-12-19T04:11:52.588Z,612.47
2022-12-19T04:13:05.309Z,605.39
2022-12-19T04:14:20.124Z,600.38
2022-12-19T04:15:45.255Z,614.83
2022-12-19T04:16:59.820Z,618.62
2022-12-19T04:18:12.845Z,625.53
2022-12-19T04:19:29.614Z,615.84
2022-12-19T04:20:48.645Z,604.04
2022-12-19T04:22:05.000Z,626.15
2022-12-19T04:23:24.535Z,618.81
2022-12-19T04:24:36.647Z,622.06
2022-12-19T04:25:52.281Z,604.18
2022-12-19T04:27:02.564Z,633.12
2022-12-19T04:28:16.779Z,624.25
2022-12-19T04:29:21.570Z,628.58
2022-12-19T04:30:27.458Z,612.50
2022-12-19T04:31:32.666Z,634.47
2022-12-19T04:32:43.143Z,629.37
2022-12-19T04:33:46.725Z,649.45
2022-12-19T04:34:52.616Z,671.93
2022-12-19T04:35:58.857Z,683.80
2022-12-19T04:37:06.754Z,676.54
2022-12-19T04:38:10.230Z,699.46
2022-12-19T04:39:16.271Z,723.57
2022-12-19T04:40:19.713Z,713.65
2022-12-19T04:41:25.613Z,713.73
2022-12-19T04:42:29.856Z,770.71
2022-12-19T04:43:36.063Z,766.44
2022-12-19T04:44:39.367Z,727.99
2022-12-19T04:45:45.552Z,695.79
2022-12-19T04:46:49.370Z,688.94
2022-12-19T04:47:56.067Z,706.05
2022-12-19T04:48:59.390Z,706.71
2022-12-19T04:50:05.557Z,712.57
2022-12-19T04:51:11.477Z,717.02
2022-12-19T04:52:17.402Z,714.39
2022-12-19T04:53:21.524Z,734.48
2022-12-19T04:54:27.380Z,744.34
2022-12-19T04:55:30.927Z,752.47
2022-12-19T04:56:36.829Z,769.96
2022-12-19T04:57:40.078Z,763.07
2022-12-19T04:58:46.805Z,752.12
2022-12-19T04:59:50.444Z,752.57
2022-12-19T05:00:56.310Z,823.26
2022-12-19T05:02:00.735Z,856.78
2022-12-19T05:03:06.881Z,852.01
2022-12-19T05:04:11.193Z,847.62
2022-12-19T05:05:18.412Z,846.02
2022-12-19T05:06:24.459Z,815.88
2022-12-19T05:07:30.479Z,790.00
2022-12-19T05:08:34.461Z,787.43
2022-12-19T05:09:41.327Z,791.65
2022-12-19T05:10:44.593Z,798.55
2022-12-19T05:11:50.987Z,797.33
2022-12-19T05:12:55.580Z,843.69
2022-12-19T05:14:02.406Z,845.34
2022-12-19T05:15:08.848Z,785.19
2022-12-19T05:16:16.386Z,757.52
2022-12-19T05:17:19.743Z,744.32
2022-12-19T05:18:25.815Z,724.28
2022-12-19T05:19:32.315Z,712.00
2022-12-19T05:20:38.117Z,715.50
2022-12-19T05:21:46.867Z,730.82
2022-12-19T05:22:50.186Z,744.58
2022-12-19T05:23:56.104Z,755.19
2022-12-19T05:24:59.389Z,731.57
2022-12-19T05:26:08.795Z,720.93
2022-12-19T05:27:12.098Z,712.74
2022-12-19T05:28:19.697Z,725.98
2022-12-19T05:29:23.337Z,719.51
2022-12-19T05:30:29.250Z,732.57
2022-12-19T05:31:33.507Z,706.83
2022-12-19T05:32:39.444Z,713.25
2022-12-19T05:33:43.947Z,720.19
2022-12-19T05:34:50.004Z,727.91
2022-12-19T05:35:53.318Z,738.68
2022-12-19T05:37:03.754Z,739.95
2022-12-19T05:38:07.396Z,757.54
2022-12-19T05:39:13.772Z,753.55
2022-12-19T05:40:17.220Z,765.70
2022-12-19T05:41:25.638Z,789.33
2022-12-19T05:42:29.736Z,772.19
2022-12-19T05:43:35.675Z,747.63
2022-12-19T05:44:38.977Z,747.08
2022-12-19T05:45:44.996Z,759.85
2022-12-19T05:46:48.468Z,750.46
2022-12-19T05:47:59.966Z,746.12
2022-12-19T05:49:04.721Z,752.92
2022-12-19T05:50:12.884Z,784.87
2022-12-19T05:51:17.020Z,775.24
2022-12-19T05:52:25.609Z,767.60
2022-12-19T05:53:30.524Z,759.72
2022-12-19T05:54:36.563Z,754.42
2022-12-19T05:55:39.918Z,764.79
2022-12-19T05:56:45.924Z,762.35
2022-12-19T05:57:49.462Z,729.71
2022-12-19T05:58:56.216Z,710.00
2022-12-19T06:00:00.017Z,730.60
2022-12-19T06:01:07.560Z,748.60
2022-12-19T06:02:12.759Z,743.99
2022-12-19T06:03:18.894Z,731.93
2022-12-19T06:04:23.197Z,741.27
2022-12-19T06:05:29.137Z,707.30
2022-12-19T06:06:34.996Z,741.63
2022-12-19T06:07:42.565Z,729.31
2022-12-19T06:08:49.404Z,703.75
2022-12-19T06:09:53.574Z,713.52
2022-12-19T06:11:02.797Z,726.74
2022-12-19T06:12:07.197Z,716.90
2022-12-19T06:13:13.394Z,687.11
2022-12-19T06:14:19.650Z,687.10
2022-12-19T06:15:23.771Z,693.72
2022-12-19T06:16:29.764Z,689.03
2022-12-19T06:17:33.219Z,673.42
2022-12-19T06:18:42.990Z,661.18
2022-12-19T06:19:48.270Z,681.56
2022-12-19T06:21:01.569Z,687.62
2022-12-19T06:22:05.018Z,669.29
2022-12-19T06:23:13.592Z,663.81
2022-12-19T06:24:17.575Z,687.73
2022-12-19T06:25:25.822Z,690.76
2022-12-19T06:26:31.472Z,704.68
2022-12-19T06:27:37.817Z,699.68
2022-12-19T06:28:41.167Z,685.12
2022-12-19T06:29:47.383Z,709.48
2022-12-19T06:30:50.941Z,678.32
2022-12-19T06:31:57.812Z,678.31
2022-12-19T06:33:01.349Z,712.07
2022-12-19T06:34:07.563Z,705.28
2022-12-19T06:35:11.561Z,716.47
2022-12-19T06:36:25.445Z,730.31
2022-12-19T06:37:29.689Z,718.59
2022-12-19T06:38:38.879Z,753.16
2022-12-19T06:39:42.230Z,761.74
2022-12-19T06:41:01.261Z,803.07
2022-12-19T06:42:20.308Z,840.41
2022-12-19T06:43:29.565Z,849.54
2022-12-19T06:44:34.114Z,813.44
2022-12-19T06:45:40.149Z,839.00
2022-12-19T06:46:44.743Z,822.73
2022-12-19T06:47:50.689Z,795.85
2022-12-19T06:48:58.864Z,768.46
2022-12-19T06:50:04.987Z,762.00
2022-12-19T06:51:08.783Z,771.69
2022-12-19T06:52:15.647Z,793.42
2022-12-19T06:53:21.812Z,805.22
2022-12-19T06:54:31.709Z,771.77
2022-12-19T06:55:37.559Z,781.47
2022-12-19T06:56:46.582Z,785.45
2022-12-19T06:57:49.901Z,758.91
2022-12-19T06:58:57.064Z,761.09
2022-12-19T07:00:03.897Z,761.49
2022-12-19T07:01:07.419Z,746.25
2022-12-19T07:02:31.550Z,777.58
2022-12-19T07:03:41.567Z,768.47
2022-12-19T07:04:54.652Z,799.69
2022-12-19T07:05:58.941Z,806.73
2022-12-19T07:07:05.167Z,780.69
2022-12-19T07:08:14.071Z,798.55
2022-12-19T07:09:17.829Z,777.49
2022-12-19T07:10:26.586Z,751.96
2022-12-19T07:11:30.782Z,743.97
2022-12-19T07:12:36.681Z,751.99
2022-12-19T07:13:40.110Z,745.10
2022-12-19T07:14:51.701Z,762.36
2022-12-19T07:16:07.291Z,772.77
2022-12-19T07:17:16.553Z,793.58
2022-12-19T07:18:20.045Z,785.27
2022-12-19T07:19:29.160Z,776.45
2022-12-19T07:20:44.877Z,760.58
2022-12-19T07:21:52.469Z,729.21
2022-12-19T07:22:56.918Z,728.68
2022-12-19T07:24:04.289Z,723.97
2022-12-19T07:25:10.054Z,717.15
2022-12-19T07:26:18.655Z,713.86
2022-12-19T07:27:28.563Z,725.92
2022-12-19T07:28:44.725Z,702.85
2022-12-19T07:29:50.688Z,707.61
2022-12-19T07:30:54.311Z,728.18
2022-12-19T07:32:00.398Z,727.92
2022-12-19T07:33:08.916Z,730.56
2022-12-19T07:34:19.259Z,744.14
2022-12-19T07:35:24.616Z,746.69
2022-12-19T07:36:30.884Z,760.36
2022-12-19T07:37:36.967Z,751.98
2022-12-19T07:38:40.294Z,764.85
2022-12-19T07:39:47.145Z,750.01
2022-12-19T07:40:53.311Z,782.13
2022-12-19T07:42:02.180Z,780.79
2022-12-19T07:43:17.596Z,787.66
2022-12-19T07:44:23.785Z,793.66
2022-12-19T07:45:31.081Z,762.93
2022-12-19T07:46:37.211Z,778.23
2022-12-19T07:47:40.589Z,769.14
2022-12-19T07:48:46.763Z,763.22
2022-12-19T07:49:50.272Z,789.18
2022-12-19T07:50:57.507Z,778.01
2022-12-19T07:52:03.931Z,777.26
2022-12-19T07:53:09.932Z,797.19
2022-12-19T07:54:18.045Z,790.85
2022-12-19T07:55:24.199Z,772.75
2022-12-19T07:56:28.987Z,780.52
2022-12-19T07:57:37.659Z,749.30
2022-12-19T07:58:41.116Z,736.08
2022-12-19T07:59:47.289Z,743.92
2022-12-19T08:00:58.770Z,722.25
2022-12-19T08:02:03.561Z,731.37
2022-12-19T08:03:09.723Z,731.86
2022-12-19T08:04:13.936Z,715.26
2022-12-19T08:05:20.470Z,716.51
2022-12-19T08:06:24.912Z,716.08
2022-12-19T08:07:31.727Z,710.03
2022-12-19T08:08:38.586Z,717.16
2022-12-19T08:09:44.496Z,715.90
2022-12-19T08:10:47.860Z,733.28
2022-12-19T08:11:53.688Z,725.25
2022-12-19T08:13:03.073Z,761.79
2022-12-19T08:14:06.542Z,793.36
2022-12-19T08:15:13.704Z,813.19
2022-12-19T08:16:19.810Z,815.11
2022-12-19T08:17:26.519Z,807.67
2022-12-19T08:18:33.494Z,784.33
2022-12-19T08:19:39.536Z,774.29
2022-12-19T08:20:49.523Z,766.01
2022-12-19T08:21:55.537Z,759.37
2022-12-19T08:23:01.574Z,758.26
2022-12-19T08:24:07.161Z,748.70
2022-12-19T08:25:13.661Z,738.25
2022-12-19T08:26:25.576Z,720.48
2022-12-19T08:27:31.828Z,689.30
2022-12-19T08:28:40.925Z,699.20
2022-12-19T08:29:48.158Z,690.08
2022-12-19T08:30:54.368Z,703.65
2022-12-19T08:32:00.453Z,710.08
2022-12-19T08:33:07.026Z,767.16
2022-12-19T08:34:10.630Z,799.78
2022-12-19T08:35:17.560Z,812.46
2022-12-19T08:36:21.998Z,822.75
2022-12-19T08:37:29.924Z,793.66
2022-12-19T08:38:33.261Z,758.96
2022-12-19T08:39:39.367Z,740.48
2022-12-19T08:40:47.661Z,721.14
2022-12-19T08:41:53.723Z,708.27
2022-12-19T08:42:58.282Z,718.32
2022-12-19T08:44:07.358Z,743.72
2022-12-19T08:45:13.914Z,736.44
2022-12-19T08:46:21.808Z,699.59
2022-12-19T08:47:27.967Z,695.52
2022-12-19T08:48:36.156Z,701.08
2022-12-19T08:49:42.424Z,743.25
2022-12-19T08:50:54.626Z,751.58
2022-12-19T08:52:01.581Z,725.82
2022-12-19T08:53:08.366Z,718.68
2022-12-19T08:54:15.548Z,728.25
2022-12-19T08:55:21.672Z,713.18
2022-12-19T08:56:27.773Z,708.47
2022-12-19T08:57:34.741Z,715.06
2022-12-19T08:58:40.712Z,717.83
2022-12-19T08:59:51.420Z,712.19
2022-12-19T09:01:05.263Z,730.93
2022-12-19T09:02:15.289Z,718.99
2022-12-19T09:03:22.710Z,732.47
2022-12-19T09:06:01.889Z,713.29
2022-12-19T09:06:07.095Z,715.62
2022-12-19T09:07:16.217Z,679.22
2022-12-19T09:08:23.168Z,665.16
2022-12-19T09:09:29.569Z,661.51
2022-12-19T09:10:38.649Z,676.27
2022-12-19T09:11:48.141Z,679.07
2022-12-19T09:12:58.039Z,704.84
2022-12-19T09:14:05.312Z,689.47
2022-12-19T09:15:14.385Z,694.98
2022-12-19T09:16:24.101Z,699.89
2022-12-19T09:17:31.422Z,698.66
2022-12-19T09:18:39.858Z,677.10
2022-12-19T09:19:48.535Z,702.10
2022-12-19T09:20:57.920Z,693.88
2022-12-19T09:22:04.088Z,690.15
2022-12-19T09:23:10.145Z,686.34
2022-12-19T09:24:16.120Z,707.27
2022-12-19T09:25:22.861Z,709.55
2022-12-19T09:26:33.683Z,707.31
2022-12-19T09:28:17.390Z,703.71
2022-12-19T09:29:21.109Z,705.14
2022-12-19T09:30:32.080Z,705.19
2022-12-19T09:31:40.552Z,700.34
2022-12-19T09:32:48.109Z,685.76
2022-12-19T09:33:55.026Z,695.22
2022-12-19T09:35:00.948Z,687.46
2022-12-19T09:36:11.849Z,682.75
2022-12-19T09:37:18.110Z,679.36
2022-12-19T09:38:23.549Z,700.02
2022-12-19T09:39:29.531Z,720.19
2022-12-19T09:40:58.219Z,737.23
2022-12-19T09:42:59.342Z,927.75
2022-12-19T09:44:26.377Z,933.37
2022-12-19T09:45:55.751Z,958.46
2022-12-19T09:47:06.446Z,886.21
2022-12-19T09:48:23.811Z,842.67
2022-12-19T09:49:41.647Z,805.46
2022-12-19T09:51:10.400Z,801.17
2022-12-19T09:52:25.005Z,822.27
2022-12-19T09:53:54.288Z,822.14
2022-12-19T09:55:16.822Z,849.57
2022-12-19T09:56:29.174Z,872.65
2022-12-19T09:57:47.448Z,920.76
2022-12-19T09:59:07.855Z,885.13
2022-12-19T10:00:21.674Z,869.52
2022-12-19T10:01:42.452Z,851.76
2022-12-19T10:02:59.578Z,813.53
2022-12-19T10:04:18.644Z,796.33
2022-12-19T10:06:24.927Z,805.78
2022-12-19T10:07:18.250Z,793.74
2022-12-19T10:08:47.691Z,787.30
2022-12-19T10:12:34.499Z,744.96
2022-12-19T10:12:45.179Z,756.44
2022-12-19T10:13:37.364Z,733.26
2022-12-19T10:15:03.398Z,724.06
2022-12-19T10:16:22.523Z,713.62
2022-12-19T10:18:01.130Z,691.81
2022-12-19T10:19:12.293Z,694.24
2022-12-19T10:20:32.785Z,685.24
2022-12-19T10:22:17.805Z,699.48
2022-12-19T10:24:19.035Z,674.38
2022-12-19T10:25:57.702Z,694.93
2022-12-19T10:27:16.346Z,664.80
2022-12-19T10:28:58.622Z,661.28
2022-12-19T10:30:17.309Z,652.54
2022-12-19T10:31:35.991Z,659.84
2022-12-19T10:33:07.085Z,655.55
2022-12-19T10:34:25.394Z,666.12
2022-12-19T10:35:37.723Z,664.91
2022-12-19T10:38:34.329Z,670.06
2022-12-19T10:40:00.650Z,712.85
2022-12-19T10:41:19.881Z,683.81
2022-12-19T10:42:39.577Z,707.44
2022-12-19T10:44:06.108Z,705.50
2022-12-19T10:45:19.689Z,679.49
2022-12-19T10:46:41.136Z,703.07
2022-12-19T10:47:50.887Z,718.37
2022-12-19T10:48:57.914Z,740.50
2022-12-19T10:50:09.222Z,792.85
2022-12-19T10:51:25.936Z,808.11
2022-12-19T10:52:57.002Z,794.69
2022-12-19T10:54:04.349Z,816.71
2022-12-19T10:55:40.782Z,770.63
2022-12-19T10:56:46.933Z,835.97
2022-12-19T10:57:50.200Z,829.95
2022-12-19T10:58:59.133Z,880.97
2022-12-19T11:00:20.385Z,885.24
2022-12-19T11:01:30.362Z,865.65
2022-12-19T11:02:51.966Z,859.57
2022-12-19T11:04:25.357Z,831.32
2022-12-19T11:05:47.366Z,814.36
2022-12-19T11:07:20.762Z,827.85
2022-12-19T11:08:31.053Z,831.76
2022-12-19T11:09:46.775Z,832.17
2022-12-19T11:13:15.490Z,804.59
2022-12-19T11:17:15.807Z,798.51
2022-12-19T11:18:47.125Z,797.14
2022-12-19T11:20:24.717Z,803.43
2022-12-19T11:27:46.450Z,794.91
2022-12-19T11:28:15.652Z,828.69
2022-12-19T11:29:25.414Z,791.14
2022-12-19T11:29:30.352Z,810.61
2022-12-19T11:29:37.047Z,793.02
2022-12-19T11:30:46.255Z,810.54
2022-12-19T11:30:47.658Z,795.17
2022-12-19T11:31:27.998Z,808.10
2022-12-19T11:31:46.584Z,801.52
2022-12-19T11:32:42.298Z,805.42
2022-12-19T11:33:50.764Z,805.51
2022-12-19T11:35:05.489Z,786.16
2022-12-19T11:36:31.856Z,802.87
2022-12-19T11:37:53.886Z,823.16
2022-12-19T11:39:03.408Z,809.16
2022-12-19T11:40:22.360Z,808.47
2022-12-19T11:41:43.943Z,817.11
2022-12-19T11:43:42.089Z,814.44
2022-12-19T11:44:39.310Z,818.00
2022-12-19T11:46:01.549Z,815.83
2022-12-19T11:47:27.899Z,823.86
2022-12-19T11:48:44.256Z,841.31
2022-12-19T11:50:06.302Z,870.09
2022-12-19T11:51:30.137Z,883.30
2022-12-19T11:53:03.964Z,891.42
2022-12-19T11:54:23.677Z,874.52
2022-12-19T11:55:45.168Z,861.00
2022-12-19T11:56:52.259Z,867.23
2022-12-19T11:57:58.917Z,847.61
2022-12-19T11:59:18.173Z,831.62
2022-12-19T12:00:28.840Z,848.37
2022-12-19T12:02:02.628Z,839.84
2022-12-19T12:03:49.534Z,848.17
2022-12-19T12:05:44.914Z,837.66
2022-12-19T12:06:57.785Z,857.21
2022-12-19T12:10:14.470Z,827.24
2022-12-19T12:13:43.574Z,858.48
2022-12-19T12:22:35.653Z,862.11
2022-12-19T12:22:42.147Z,850.39
2022-12-19T12:26:51.559Z,857.41
2022-12-19T12:30:46.866Z,863.34
2022-12-19T12:31:10.063Z,886.64
2022-12-19T12:31:14.691Z,879.99
2022-12-19T12:31:17.766Z,887.14
2022-12-19T12:31:44.385Z,876.03
2022-12-19T12:31:44.393Z,921.42
2022-12-19T12:32:03.005Z,923.69
2022-12-19T12:32:03.523Z,852.73
2022-12-19T12:35:13.681Z,905.10
2022-12-19T12:35:40.781Z,888.84
2022-12-19T12:39:07.212Z,923.95
2022-12-19T12:41:01.470Z,927.67
2022-12-19T12:42:33.796Z,963.18
2022-12-19T12:44:07.996Z,1000.40
2022-12-19T12:45:26.213Z,1011.31
2022-12-19T12:46:42.236Z,1036.59
2022-12-19T12:47:55.050Z,1030.94
2022-12-19T12:49:04.823Z,1025.85
2022-12-19T12:50:20.236Z,1032.98
2022-12-19T12:51:30.100Z,1058.94
2022-12-19T12:52:46.161Z,1073.67
2022-12-19T12:54:07.881Z,1085.09
2022-12-19T12:55:27.660Z,1064.78
2022-12-19T12:56:35.626Z,1151.91
2022-12-19T12:57:42.268Z,1161.74
2022-12-19T12:59:24.140Z,1099.23
2022-12-19T13:00:33.997Z,1092.91
2022-12-19T13:01:41.424Z,1069.03
2022-12-19T13:02:53.620Z,1093.60
2022-12-19T13:04:05.168Z,1084.56
2022-12-19T13:05:39.947Z,1090.38
2022-12-19T13:07:30.334Z,1089.74
2022-12-19T13:08:50.640Z,1111.53
2022-12-19T13:10:20.055Z,1098.46
2022-12-19T13:11:56.302Z,1111.62
2022-12-19T13:13:14.972Z,1102.89
2022-12-19T13:14:51.827Z,1134.07
2022-12-19T13:15:57.874Z,1124.42
2022-12-19T13:17:05.745Z,1128.58
2022-12-19T13:18:42.353Z,1194.59
2022-12-19T13:19:56.891Z,1178.17
2022-12-19T13:21:06.851Z,1193.39
2022-12-19T13:22:42.539Z,1215.24
2022-12-19T13:23:52.550Z,1225.89
2022-12-19T13:25:01.539Z,1241.93
2022-12-19T13:26:26.208Z,1219.16
2022-12-19T13:27:42.825Z,1185.01
2022-12-19T13:28:47.103Z,1108.24
2022-12-19T13:30:08.214Z,1130.78
2022-12-19T13:31:26.473Z,1157.67
2022-12-19T13:32:58.078Z,1218.26
2022-12-19T13:34:22.377Z,1162.88
2022-12-19T13:37:42.407Z,1190.88
2022-12-19T13:39:59.352Z,1142.83
2022-12-19T13:39:59.625Z,1094.17
2022-12-19T13:40:37.375Z,1086.63
2022-12-19T13:41:58.430Z,1111.14
2022-12-19T13:43:33.635Z,1175.08
2022-12-19T13:44:45.404Z,1249.64
2022-12-19T13:45:57.367Z,1215.77
2022-12-19T13:47:03.562Z,1236.31
2022-12-19T13:48:23.898Z,1332.89
2022-12-19T13:49:36.592Z,1389.94
2022-12-19T13:50:43.588Z,1352.70
2022-12-19T13:51:57.225Z,1312.62
2022-12-19T13:53:03.777Z,1289.50
2022-12-19T13:54:29.168Z,1281.23
2022-12-19T13:55:43.032Z,1248.89
2022-12-19T13:56:49.839Z,1217.36
2022-12-19T13:58:00.604Z,1225.03
2022-12-19T13:59:09.025Z,1200.60
2022-12-19T14:00:24.559Z,1244.78
2022-12-19T14:01:32.194Z,1211.43
2022-12-19T14:02:51.850Z,1206.41
2022-12-19T14:04:02.649Z,1216.39
2022-12-19T14:06:14.308Z,1235.08
2022-12-19T14:07:04.301Z,1238.75
2022-12-19T14:08:18.218Z,1217.17
2022-12-19T14:11:28.720Z,1254.74
2022-12-19T14:11:33.971Z,1387.00
2022-12-19T14:13:43.271Z,1415.17
2022-12-19T14:14:33.416Z,1409.59
2022-12-19T14:15:42.571Z,1383.07
2022-12-19T14:16:49.953Z,1376.44
2022-12-19T14:17:56.073Z,1366.95
2022-12-19T14:19:30.189Z,1368.82
2022-12-19T14:22:11.380Z,1335.65
2022-12-19T14:22:20.713Z,1326.49
2022-12-19T14:23:42.889Z,1305.25
2022-12-19T14:25:52.368Z,1326.17
2022-12-19T14:28:23.444Z,1327.93
2022-12-19T14:28:24.713Z,1269.06
2022-12-19T14:30:28.908Z,1325.28
2022-12-19T14:31:20.592Z,1312.04
2022-12-19T14:33:44.566Z,1338.08
2022-12-19T14:34:27.088Z,1350.18
2022-12-19T14:36:06.398Z,1361.69
2022-12-19T14:37:03.533Z,1445.32
2022-12-19T14:39:20.703Z,1485.22
2022-12-19T14:39:44.129Z,1562.22
2022-12-19T14:41:07.387Z,1447.23
2022-12-19T14:43:39.465Z,1400.95
2022-12-19T14:52:11.526Z,1266.80
2022-12-19T14:52:50.878Z,1343.27
2022-12-19T14:53:52.730Z,1430.13
2022-12-19T14:54:01.422Z,1443.09
2022-12-19T14:54:23.043Z,1484.57
2022-12-19T14:54:25.523Z,1457.75
2022-12-19T14:54:37.733Z,1523.10
2022-12-19T14:56:16.054Z,1480.05
2022-12-19T14:57:03.914Z,1462.08
2022-12-19T14:58:53.315Z,1399.12
2022-12-19T14:59:46.362Z,1353.55
2022-12-19T15:01:09.286Z,1341.15
2022-12-19T15:02:30.642Z,1331.25
2022-12-19T15:04:50.555Z,1352.71
2022-12-19T15:05:24.276Z,1337.83
2022-12-19T15:07:07.863Z,1364.30
2022-12-19T15:08:04.457Z,1338.06
2022-12-19T15:10:58.387Z,1351.74
2022-12-19T15:11:05.268Z,1323.55
2022-12-19T15:14:48.564Z,1530.36
2022-12-19T15:14:56.319Z,1609.12
2022-12-19T15:15:46.303Z,1609.06
2022-12-19T15:17:06.162Z,1627.19
2022-12-19T15:18:28.897Z,1664.30
2022-12-19T15:19:35.375Z,1595.85
2022-12-19T15:20:42.131Z,1508.23
2022-12-19T15:21:49.508Z,1443.95
2022-12-19T15:22:55.582Z,1301.96
2022-12-19T15:24:02.526Z,1294.76
2022-12-19T15:25:17.516Z,1421.50
2022-12-19T15:26:49.133Z,1492.02
2022-12-19T15:27:58.330Z,1407.75